Time;durP1;ratioP1;P1;durP2;ratioP2;P2;SDS_P1;SDS_P2;PMS_P1;PMS_P2;Temp;Humidity;BMP_temperature;BMP_pressure;BME280_temperature;BME280_humidity;BME280_pressure;Samples;Min_cycle;Max_cycle;Signal;HPM_P1;HPM_P2
2022/10/22 00:01:58;;;;;;;10.75;6.22;;;12.30;95.60;;;;;;5093731;28;20459;-47
2022/10/22 00:04:24;;;;;;;8.18;5.45;;;12.30;95.50;;;;;;5093629;28;20059;-47
2022/10/22 00:06:49;;;;;;;8.52;5.35;;;12.20;95.50;;;;;;5092287;28;20119;-47
2022/10/22 00:09:15;;;;;;;13.63;6.88;;;12.20;95.50;;;;;;5093784;28;20016;-47
2022/10/22 00:11:42;;;;;;;12.25;7.13;;;12.20;95.50;;;;;;5093394;28;20020;-47
2022/10/22 00:14:08;;;;;;;12.27;5.47;;;12.20;95.50;;;;;;5093682;28;20482;-47
2022/10/22 00:16:33;;;;;;;10.00;5.85;;;12.20;95.50;;;;;;5093332;28;20024;-47
2022/10/22 00:18:59;;;;;;;10.85;6.07;;;12.10;95.50;;;;;;5093358;28;20499;-50
2022/10/22 00:21:27;;;;;;;7.00;4.88;;;12.10;95.50;;;;;;5093306;28;20132;-47
2022/10/22 00:23:54;;;;;;;6.13;4.43;;;12.20;95.50;;;;;;5093516;28;20386;-47
2022/10/22 00:26:20;;;;;;;9.25;4.97;;;12.20;95.50;;;;;;5093262;28;20028;-47
2022/10/22 00:28:46;;;;;;;6.55;4.95;;;12.20;95.50;;;;;;5093239;28;20028;-47
2022/10/22 00:31:11;;;;;;;8.35;4.47;;;12.20;95.50;;;;;;5093197;28;20170;-47
2022/10/22 00:33:37;;;;;;;6.95;4.97;;;12.10;95.50;;;;;;5093242;28;20038;-49
2022/10/22 00:36:03;;;;;;;7.60;4.50;;;12.10;95.50;;;;;;5093136;28;20028;-46
2022/10/22 00:38:29;;;;;;;11.07;5.80;;;12.10;95.50;;;;;;5093083;28;20052;-49
2022/10/22 00:40:54;;;;;;;8.63;5.15;;;12.10;95.50;;;;;;5091881;28;20035;-48
2022/10/22 00:43:20;;;;;;;8.48;5.20;;;12.00;95.50;;;;;;5093042;28;20444;-48
2022/10/22 00:45:46;;;;;;;6.35;4.28;;;12.00;95.50;;;;;;5093135;28;20103;-48
2022/10/22 00:48:24;;;;;;;13.80;6.13;;;12.00;95.50;;;;;;5093098;28;20023;-46
2022/10/22 00:50:57;;;;;;;8.57;4.85;;;12.00;95.60;;;;;;5093113;28;20324;-47
2022/10/22 00:53:33;;;;;;;10.85;5.18;;;12.00;95.50;;;;;;5093323;28;20107;-48
2022/10/22 00:55:59;;;;;;;10.43;5.10;;;11.90;95.50;;;;;;5093099;28;20028;-47
2022/10/22 00:58:28;;;;;;;12.02;5.22;;;12.00;95.60;;;;;;5093043;28;20077;-47
2022/10/22 01:00:55;;;;;;;8.00;4.82;;;12.10;95.70;;;;;;5092221;28;20028;-47
2022/10/22 01:03:20;;;;;;;10.18;5.18;;;12.10;95.60;;;;;;5093454;28;20031;-47
2022/10/22 01:05:56;;;;;;;11.27;6.75;;;12.10;95.60;;;;;;5096963;28;20024;-50
2022/10/22 01:08:36;;;;;;;10.65;6.57;;;12.00;95.50;;;;;;5096966;28;20026;-48
2022/10/22 01:11:26;;;;;;;8.20;4.63;;;12.00;95.50;;;;;;5096952;28;20020;-48
2022/10/22 01:13:54;;;;;;;10.77;5.05;;;12.00;95.60;;;;;;5096912;28;20031;-47
2022/10/22 01:16:29;;;;;;;15.35;6.18;;;12.00;95.50;;;;;;5096871;28;20032;-46
2022/10/22 01:19:34;;;;;;;10.65;5.88;;;12.00;95.50;;;;;;5096930;28;20479;-47
2022/10/22 01:22:12;;;;;;;8.50;4.45;;;12.00;95.50;;;;;;5090150;28;20429;-47
2022/10/22 01:24:41;;;;;;;8.25;4.75;;;11.90;95.50;;;;;;5097073;28;20020;-47
2022/10/22 01:27:14;;;;;;;7.72;5.07;;;11.90;95.50;;;;;;5096471;28;20020;-48
2022/10/22 01:29:48;;;;;;;13.10;4.45;;;11.90;95.50;;;;;;5096751;28;20099;-48
2022/10/22 01:32:21;;;;;;;7.28;4.70;;;12.00;95.50;;;;;;5096866;28;20032;-48
2022/10/22 01:35:00;;;;;;;6.43;4.97;;;11.90;95.50;;;;;;5096447;28;20043;-50
2022/10/22 01:37:30;;;;;;;11.10;5.32;;;11.80;95.50;;;;;;5095606;28;20028;-49
2022/10/22 01:39:59;;;;;;;9.45;4.90;;;11.80;95.50;;;;;;5096632;28;20345;-49
2022/10/22 01:42:25;;;;;;;9.02;5.10;;;11.80;95.50;;;;;;5096068;28;20476;-48
2022/10/22 01:44:50;;;;;;;12.95;7.28;;;11.90;95.60;;;;;;5096328;28;20027;-48
2022/10/22 01:47:39;;;;;;;8.38;5.95;;;11.90;95.60;;;;;;5096178;28;20020;-49
2022/10/22 01:50:31;;;;;;;10.23;5.22;;;11.90;95.50;;;;;;5096081;28;20020;-48
2022/10/22 01:53:13;;;;;;;12.65;6.85;;;11.80;95.50;;;;;;5095163;28;20111;-46
2022/10/22 01:56:12;;;;;;;7.90;4.97;;;11.80;95.50;;;;;;5096036;28;20024;-47
2022/10/22 01:58:51;;;;;;;10.48;4.78;;;11.80;95.50;;;;;;5095447;28;20407;-46
2022/10/22 02:01:58;;;;;;;9.90;4.88;;;11.80;95.50;;;;;;5096053;28;20023;-50
2022/10/22 02:04:59;;;;;;;7.25;4.40;;;11.80;95.50;;;;;;5061355;28;20032;-47
2022/10/22 02:07:30;;;;;;;6.68;4.50;;;11.80;95.50;;;;;;5096250;28;20024;-47
2022/10/22 02:09:58;;;;;;;7.47;5.13;;;11.80;95.50;;;;;;5095895;28;20019;-48
2022/10/22 02:12:27;;;;;;;6.88;4.32;;;11.80;95.50;;;;;;5094295;28;20024;-48
2022/10/22 02:14:54;;;;;;;5.63;4.03;;;11.80;95.50;;;;;;5095472;28;20394;-50
2022/10/22 02:17:21;;;;;;;9.50;4.47;;;11.80;95.60;;;;;;5096165;28;20024;-49
2022/10/22 02:19:53;;;;;;;6.30;4.18;;;11.80;95.60;;;;;;5095616;28;20039;-48
2022/10/22 02:22:19;;;;;;;10.60;5.00;;;11.80;95.60;;;;;;5095808;28;20032;-48
2022/10/22 02:24:47;;;;;;;14.10;6.70;;;11.80;95.60;;;;;;5095523;28;20474;-48
2022/10/22 02:27:22;;;;;;;12.20;4.80;;;11.80;95.60;;;;;;5094060;28;20412;-48
2022/10/22 02:30:14;;;;;;;9.50;4.45;;;11.80;95.60;;;;;;5095666;28;20017;-46
2022/10/22 02:32:58;;;;;;;7.85;4.47;;;11.80;95.60;;;;;;5095312;28;20476;-51
2022/10/22 02:35:26;;;;;;;12.45;5.28;;;11.80;95.60;;;;;;5095507;28;20024;-47
2022/10/22 02:37:54;;;;;;;8.07;4.88;;;11.70;95.60;;;;;;5095228;28;20024;-47
2022/10/22 02:40:20;;;;;;;5.85;4.13;;;11.70;95.60;;;;;;5095142;28;20020;-47
2022/10/22 02:42:48;;;;;;;10.18;5.13;;;11.70;95.60;;;;;;5093784;28;20496;-47
2022/10/22 02:45:14;;;;;;;6.90;4.30;;;11.70;95.60;;;;;;5093863;28;20436;-48
2022/10/22 02:47:40;;;;;;;14.95;5.07;;;11.60;95.60;;;;;;5095027;28;20088;-48
2022/10/22 02:50:06;;;;;;;6.90;5.22;;;11.60;95.60;;;;;;5095211;28;20360;-47
2022/10/22 02:52:32;;;;;;;7.50;4.15;;;11.60;95.60;;;;;;5095050;28;20020;-48
2022/10/22 02:54:58;;;;;;;8.10;5.00;;;11.60;95.60;;;;;;5094967;28;20028;-49
2022/10/22 02:57:23;;;;;;;6.53;4.95;;;11.60;95.60;;;;;;5094839;28;20020;-47
2022/10/22 02:59:49;;;;;;;8.77;4.93;;;11.60;95.70;;;;;;5094795;28;20032;-48
2022/10/22 03:02:15;;;;;;;7.68;5.63;;;11.60;95.70;;;;;;5094617;28;20059;-49
2022/10/22 03:04:40;;;;;;;7.03;4.45;;;11.60;95.60;;;;;;5095308;28;20066;-48
2022/10/22 03:07:06;;;;;;;12.73;5.82;;;11.60;95.60;;;;;;5094169;28;20024;-48
2022/10/22 03:09:32;;;;;;;8.35;4.70;;;11.60;95.70;;;;;;5096638;28;20031;-50
2022/10/22 03:11:57;;;;;;;9.02;5.40;;;11.60;95.70;;;;;;5096515;28;20032;-47
2022/10/22 03:14:23;;;;;;;8.27;4.00;;;11.60;95.70;;;;;;5096447;28;20481;-47
2022/10/22 03:16:48;;;;;;;9.60;4.93;;;11.50;95.60;;;;;;5095492;28;20119;-48
2022/10/22 03:19:14;;;;;;;11.50;4.85;;;11.50;95.70;;;;;;5095846;28;20085;-49
2022/10/22 03:21:46;;;;;;;11.10;4.70;;;11.50;95.60;;;;;;5096467;28;20193;-49
2022/10/22 03:24:16;;;;;;;8.63;4.65;;;11.40;95.60;;;;;;5097088;28;20023;-49
2022/10/22 03:26:44;;;;;;;11.13;5.22;;;11.40;95.60;;;;;;5095877;28;20062;-48
2022/10/22 03:29:11;;;;;;;12.23;6.90;;;11.40;95.70;;;;;;5095655;28;20337;-48
2022/10/22 03:31:36;;;;;;;10.10;4.63;;;11.40;95.70;;;;;;5096420;28;20027;-49
2022/10/22 03:34:02;;;;;;;15.35;5.80;;;11.40;95.70;;;;;;5095906;28;20056;-48
2022/10/22 03:36:27;;;;;;;11.55;4.88;;;11.30;95.70;;;;;;5096496;28;20023;-48
2022/10/22 03:38:53;;;;;;;11.57;4.80;;;11.30;95.70;;;;;;5096512;28;20044;-48
2022/10/22 03:41:19;;;;;;;6.68;5.03;;;11.30;95.70;;;;;;5095767;28;20067;-47
2022/10/22 03:43:48;;;;;;;14.32;6.70;;;11.30;95.70;;;;;;5094913;28;20032;-47
2022/10/22 03:46:14;;;;;;;7.80;5.85;;;11.20;95.70;;;;;;5093382;28;20012;-48
2022/10/22 03:48:40;;;;;;;8.48;5.57;;;11.20;95.70;;;;;;5094238;28;20043;-47
2022/10/22 03:51:06;;;;;;;8.27;4.88;;;11.20;95.70;;;;;;5094244;28;20020;-48
2022/10/22 03:53:32;;;;;;;13.95;4.85;;;11.20;95.70;;;;;;5092544;28;20032;-47
2022/10/22 03:55:57;;;;;;;14.82;4.82;;;11.20;95.70;;;;;;5093718;28;20043;-48
2022/10/22 03:58:23;;;;;;;10.43;5.03;;;11.10;95.70;;;;;;5093623;28;20361;-48
2022/10/22 04:00:49;;;;;;;8.40;5.22;;;11.00;95.70;;;;;;5094065;28;20024;-48
2022/10/22 04:03:14;;;;;;;10.07;5.75;;;11.10;95.80;;;;;;5093593;28;20077;-46
2022/10/22 04:05:40;;;;;;;10.45;6.30;;;11.10;95.80;;;;;;5093935;28;20430;-47
2022/10/22 04:08:05;;;;;;;13.13;6.72;;;11.00;95.80;;;;;;5093535;28;20024;-47
2022/10/22 04:10:31;;;;;;;7.32;5.38;;;11.00;95.80;;;;;;5093593;28;20446;-47
2022/10/22 04:12:56;;;;;;;12.20;6.15;;;11.00;95.80;;;;;;5092080;28;20028;-47
2022/10/22 04:15:25;;;;;;;11.57;6.93;;;11.00;95.80;;;;;;5093670;28;20067;-49
2022/10/22 04:17:51;;;;;;;6.85;5.68;;;11.00;95.80;;;;;;5093760;28;20490;-50
2022/10/22 04:20:16;;;;;;;13.10;5.75;;;11.00;95.80;;;;;;5093350;28;20020;-47
2022/10/22 04:22:42;;;;;;;10.07;6.13;;;10.90;95.80;;;;;;5093068;28;20024;-47
2022/10/22 04:25:08;;;;;;;10.43;5.82;;;10.90;95.80;;;;;;5093498;28;20024;-47
2022/10/22 04:27:34;;;;;;;12.73;6.38;;;11.00;95.80;;;;;;5093241;28;20190;-46
2022/10/22 04:30:00;;;;;;;11.57;6.28;;;10.90;95.80;;;;;;5093467;28;20032;-49
2022/10/22 04:32:27;;;;;;;13.95;5.15;;;10.90;95.80;;;;;;5093351;28;20093;-47
2022/10/22 04:34:52;;;;;;;10.60;5.22;;;10.90;95.80;;;;;;5092317;28;20099;-48
2022/10/22 04:37:18;;;;;;;12.65;5.80;;;10.90;95.80;;;;;;5093435;28;20448;-48
2022/10/22 04:39:44;;;;;;;13.82;6.07;;;10.90;95.90;;;;;;5093331;28;20100;-48
2022/10/22 04:42:10;;;;;;;8.95;6.13;;;10.90;95.90;;;;;;5092789;28;20060;-49
2022/10/22 04:44:35;;;;;;;7.63;5.18;;;10.90;95.90;;;;;;5093450;28;20052;-51
2022/10/22 04:47:01;;;;;;;10.07;6.03;;;11.00;95.80;;;;;;5093065;28;20066;-48
2022/10/22 04:49:27;;;;;;;9.68;6.13;;;10.90;95.80;;;;;;5093344;28;20456;-49
2022/10/22 04:51:52;;;;;;;11.27;5.70;;;10.90;95.80;;;;;;5093093;28;20081;-48
2022/10/22 04:54:18;;;;;;;11.57;5.57;;;10.90;95.80;;;;;;5093246;28;20072;-50
2022/10/22 04:56:43;;;;;;;11.65;5.72;;;10.80;95.80;;;;;;5093305;28;20020;-48
2022/10/22 04:59:11;;;;;;;7.85;5.80;;;10.90;95.80;;;;;;5093019;28;20128;-47
2022/10/22 05:01:42;;;;;;;12.15;6.85;;;10.90;95.80;;;;;;5092885;28;20024;-47
2022/10/22 05:04:09;;;;;;;11.45;6.63;;;11.00;95.80;;;;;;5092868;28;20028;-47
2022/10/22 05:06:36;;;;;;;17.25;6.07;;;11.10;95.90;;;;;;5092820;28;20020;-47
2022/10/22 05:09:07;;;;;;;11.98;6.72;;;11.30;95.90;;;;;;5092873;28;20024;-46
2022/10/22 05:11:35;;;;;;;14.55;6.45;;;11.30;95.80;;;;;;5092859;28;20404;-47
2022/10/22 05:14:04;;;;;;;8.98;5.15;;;11.30;95.80;;;;;;5092755;28;20024;-47
2022/10/22 05:16:31;;;;;;;9.10;6.32;;;11.30;95.80;;;;;;5092998;28;20207;-47
2022/10/22 05:18:58;;;;;;;8.10;5.40;;;11.30;95.80;;;;;;5093005;28;20028;-47
2022/10/22 05:21:25;;;;;;;12.23;6.82;;;11.20;95.80;;;;;;5092820;28;20020;-47
2022/10/22 05:23:51;;;;;;;14.93;7.38;;;11.20;95.90;;;;;;5092653;28;20077;-47
2022/10/22 05:26:20;;;;;;;10.90;6.07;;;11.10;95.90;;;;;;5092915;28;20016;-47
2022/10/22 05:28:48;;;;;;;10.73;6.88;;;11.00;95.90;;;;;;5092754;28;20464;-47
2022/10/22 05:31:15;;;;;;;9.77;5.75;;;11.10;95.90;;;;;;5092615;28;20028;-48
2022/10/22 05:33:42;;;;;;;10.60;6.55;;;11.10;95.90;;;;;;5092588;28;20043;-47
2022/10/22 05:36:12;;;;;;;14.82;6.95;;;11.10;95.90;;;;;;5092905;28;20028;-47
2022/10/22 05:38:38;;;;;;;13.95;7.18;;;11.10;95.90;;;;;;5091109;28;20039;-47
2022/10/22 05:41:15;;;;;;;14.50;6.30;;;11.00;95.90;;;;;;5092405;28;20036;-49
2022/10/22 05:43:41;;;;;;;18.30;6.82;;;11.00;95.90;;;;;;5092729;28;20040;-47
2022/10/22 05:46:10;;;;;;;10.85;6.30;;;11.00;95.90;;;;;;5092884;28;20494;-48
2022/10/22 05:48:36;;;;;;;13.85;6.32;;;11.00;95.90;;;;;;5092537;28;20031;-47
2022/10/22 16:41:12;;;;;;;8.65;2.97;;;14.30;84.50;;;;;;5132066;27;20140;-39
2022/10/22 16:43:39;;;;;;;12.45;3.55;;;14.30;85.00;;;;;;5131996;28;20027;-38
2022/10/22 16:46:06;;;;;;;8.98;3.53;;;14.20;85.60;;;;;;5132423;27;20129;-39
2022/10/22 16:48:33;;;;;;;12.18;4.75;;;14.20;85.90;;;;;;5131684;27;20103;-38
2022/10/22 16:51:06;;;;;;;7.88;4.80;;;14.30;86.10;;;;;;5130249;28;20038;-40
2022/10/22 16:53:31;;;;;;;9.98;4.95;;;14.20;86.00;;;;;;5131714;27;20115;-47
2022/10/22 16:55:57;;;;;;;10.57;4.32;;;14.10;86.20;;;;;;5131363;27;20106;-48
2022/10/22 16:58:24;;;;;;;11.30;5.30;;;14.00;86.50;;;;;;5131185;28;20027;-49
2022/10/22 17:00:50;;;;;;;11.63;5.82;;;13.90;86.80;;;;;;5130919;27;20028;-48
2022/10/22 17:03:15;;;;;;;17.35;7.35;;;13.80;87.20;;;;;;5131724;28;20524;-48
2022/10/22 17:05:41;;;;;;;12.55;6.25;;;13.80;87.50;;;;;;5131684;28;20087;-55
2022/10/22 17:08:07;;;;;;;11.43;5.32;;;13.70;87.80;;;;;;5130970;28;20379;-50
2022/10/22 17:10:36;;;;;;;17.05;6.72;;;13.70;88.00;;;;;;5131251;27;20380;-49
2022/10/22 17:13:02;;;;;;;20.55;7.15;;;13.60;88.20;;;;;;5131043;27;20383;-47
2022/10/22 17:15:28;;;;;;;15.32;6.85;;;13.50;88.40;;;;;;5130261;28;20116;-49
2022/10/22 17:17:53;;;;;;;23.00;5.88;;;13.50;88.70;;;;;;5130951;28;20023;-50
2022/10/22 17:20:20;;;;;;;20.05;6.90;;;13.50;88.90;;;;;;5131219;27;20102;-49
2022/10/22 17:22:46;;;;;;;16.48;7.35;;;13.50;88.80;;;;;;5129366;28;20030;-51
2022/10/22 17:25:17;;;;;;;25.00;8.32;;;13.50;88.70;;;;;;5130838;27;20020;-48
2022/10/22 17:27:43;;;;;;;15.13;8.15;;;13.60;88.70;;;;;;5130516;28;20027;-48
2022/10/22 17:30:14;;;;;;;29.55;9.20;;;13.60;88.60;;;;;;5129234;28;20027;-48
2022/10/22 17:32:40;;;;;;;21.00;7.85;;;13.50;88.70;;;;;;5131146;27;20368;-48
2022/10/22 17:35:06;;;;;;;25.88;11.73;;;13.50;88.80;;;;;;5130854;28;20034;-50
2022/10/22 17:37:33;;;;;;;20.15;9.75;;;13.40;88.90;;;;;;5130498;27;20031;-48
2022/10/22 17:40:00;;;;;;;22.67;8.90;;;13.40;89.20;;;;;;5129337;27;20535;-48
2022/10/22 17:42:26;;;;;;;23.27;8.77;;;13.30;89.20;;;;;;5130244;28;20111;-52
2022/10/22 17:44:53;;;;;;;19.35;10.85;;;13.30;89.40;;;;;;5130843;28;20019;-49
2022/10/22 17:47:19;;;;;;;19.10;10.32;;;13.30;89.50;;;;;;5130620;28;20019;-48
2022/10/22 17:49:45;;;;;;;20.20;10.18;;;13.20;89.70;;;;;;5112233;28;20043;-48
2022/10/22 17:52:12;;;;;;;18.45;10.40;;;13.20;89.80;;;;;;5118597;28;20032;-47
2022/10/22 17:54:38;;;;;;;19.75;9.50;;;13.10;89.80;;;;;;5116527;28;20024;-48
2022/10/22 17:57:04;;;;;;;22.73;10.55;;;13.10;90.00;;;;;;5116108;28;20042;-49
2022/10/22 17:59:30;;;;;;;16.85;8.65;;;13.00;90.10;;;;;;5116075;28;20024;-50
2022/10/22 18:01:55;;;;;;;16.33;7.82;;;13.00;90.20;;;;;;5098329;28;20081;-51
2022/10/22 18:04:22;;;;;;;18.52;7.25;;;13.10;90.30;;;;;;5116133;28;20030;-48
2022/10/22 18:06:48;;;;;;;17.38;8.38;;;13.00;90.40;;;;;;5115844;28;20028;-50
2022/10/22 18:09:17;;;;;;;14.20;8.38;;;13.10;90.40;;;;;;5115809;28;20033;-49
2022/10/22 18:11:43;;;;;;;17.50;9.10;;;13.00;90.30;;;;;;5116235;28;20386;-49
2022/10/22 18:14:08;;;;;;;17.60;9.18;;;13.00;90.30;;;;;;5116004;28;20024;-47
2022/10/22 18:16:34;;;;;;;16.92;7.88;;;12.90;90.40;;;;;;5117390;28;20364;-49
2022/10/22 18:19:00;;;;;;;24.15;9.90;;;12.90;90.40;;;;;;5116598;28;20031;-50
2022/10/22 18:21:28;;;;;;;19.33;10.30;;;12.80;90.40;;;;;;5115881;28;20098;-48
2022/10/22 18:23:56;;;;;;;26.50;9.55;;;12.80;90.50;;;;;;5097120;28;20114;-49
2022/10/22 18:26:22;;;;;;;19.38;8.50;;;12.80;90.50;;;;;;5115992;28;20023;-48
2022/10/22 18:28:48;;;;;;;23.17;9.20;;;12.70;90.60;;;;;;5115731;28;20028;-39
2022/10/22 18:31:19;;;;;;;22.80;8.70;;;12.70;90.60;;;;;;5115757;28;20467;-39
2022/10/22 18:33:45;;;;;;;18.88;8.98;;;12.60;90.70;;;;;;5116025;28;20043;-38
2022/10/22 18:36:14;;;;;;;33.50;12.40;;;12.50;90.80;;;;;;5115311;28;20098;-40
2022/10/22 18:38:40;;;;;;;17.75;9.50;;;12.50;90.90;;;;;;5115859;28;20432;-46
2022/10/22 18:41:07;;;;;;;23.92;9.32;;;12.40;91.00;;;;;;5115385;28;20035;-39
2022/10/22 18:43:35;;;;;;;15.60;8.88;;;12.40;91.10;;;;;;5115908;28;20019;-40
2022/10/22 18:46:05;;;;;;;15.65;7.68;;;12.30;91.20;;;;;;5116589;28;20054;-39
2022/10/22 18:48:30;;;;;;;20.25;8.50;;;12.30;91.20;;;;;;5115355;28;20126;-41
2022/10/22 18:51:06;;;;;;;16.75;7.70;;;12.30;91.30;;;;;;5115589;28;20070;-40
2022/10/22 18:53:33;;;;;;;20.00;11.07;;;12.30;91.40;;;;;;5115927;28;20397;-39
2022/10/22 18:55:59;;;;;;;16.98;9.73;;;12.20;91.40;;;;;;5114999;28;20031;-39
2022/10/22 18:58:24;;;;;;;20.25;10.45;;;12.10;91.50;;;;;;5117160;28;20027;-40
2022/10/22 19:00:50;;;;;;;28.48;10.80;;;12.10;91.60;;;;;;5118576;28;20072;-39
2022/10/22 19:03:16;;;;;;;18.92;11.75;;;12.00;91.70;;;;;;5116462;28;20102;-39
2022/10/22 19:05:51;;;;;;;23.58;13.55;;;12.10;91.80;;;;;;5116584;28;20352;-40
2022/10/22 19:08:17;;;;;;;19.83;10.70;;;12.10;91.90;;;;;;5117536;28;20019;-39
2022/10/22 19:10:44;;;;;;;19.02;10.57;;;12.10;92.00;;;;;;5118562;28;20054;-39
2022/10/22 19:13:12;;;;;;;20.30;11.25;;;12.10;92.00;;;;;;5099537;28;20031;-39
2022/10/22 19:15:38;;;;;;;30.55;11.10;;;12.10;92.00;;;;;;5118257;28;20027;-40
2022/10/22 19:18:04;;;;;;;19.10;10.65;;;12.00;92.00;;;;;;5118248;28;20024;-40
2022/10/22 19:20:29;;;;;;;19.80;10.60;;;12.10;92.00;;;;;;5115348;28;20107;-39
2022/10/22 19:22:55;;;;;;;22.52;9.63;;;12.10;92.10;;;;;;5115554;28;20523;-48
2022/10/22 19:25:22;;;;;;;20.88;9.85;;;12.10;92.10;;;;;;5118202;28;20069;-48
2022/10/22 19:27:48;;;;;;;20.30;10.35;;;12.10;92.20;;;;;;5121983;28;20023;-47
2022/10/22 19:30:14;;;;;;;15.98;8.85;;;12.00;92.10;;;;;;5114030;28;20024;-51
2022/10/22 19:32:40;;;;;;;18.52;9.35;;;12.00;92.10;;;;;;5114468;28;20031;-49
2022/10/22 19:35:06;;;;;;;18.38;10.13;;;12.00;92.20;;;;;;5114585;28;20031;-48
2022/10/22 19:37:32;;;;;;;15.27;9.68;;;12.00;92.20;;;;;;5115125;28;20020;-47
2022/10/22 19:39:58;;;;;;;19.90;11.07;;;11.90;92.20;;;;;;5113987;28;20040;-48
2022/10/22 19:42:24;;;;;;;24.85;11.77;;;11.90;92.20;;;;;;5114388;28;20033;-48
2022/10/22 19:44:50;;;;;;;23.75;11.98;;;11.90;92.30;;;;;;5114127;28;20024;-49
2022/10/22 19:47:15;;;;;;;21.77;11.35;;;11.90;92.30;;;;;;5114080;28;20090;-49
2022/10/22 19:49:41;;;;;;;22.98;12.52;;;11.90;92.20;;;;;;5114779;28;20028;-49
2022/10/22 19:52:07;;;;;;;17.30;13.00;;;11.80;92.30;;;;;;5114399;28;20027;-49
2022/10/22 19:54:36;;;;;;;22.92;12.15;;;11.80;92.40;;;;;;5079288;28;20059;-48
2022/10/22 19:57:01;;;;;;;23.02;12.18;;;11.90;92.40;;;;;;5115379;28;20023;-48
2022/10/22 19:59:28;;;;;;;20.10;11.18;;;11.80;92.40;;;;;;5115406;28;20396;-54
2022/10/22 20:01:53;;;;;;;19.67;11.60;;;11.80;92.40;;;;;;5096433;28;20023;-48
2022/10/22 20:04:23;;;;;;;17.60;11.77;;;11.80;92.40;;;;;;5096045;28;20020;-53
2022/10/22 20:06:50;;;;;;;18.95;11.40;;;11.80;92.50;;;;;;5095850;28;20023;-50
2022/10/22 20:09:15;;;;;;;16.55;10.10;;;11.80;92.50;;;;;;5095493;28;20047;-49
2022/10/22 20:11:41;;;;;;;21.83;11.52;;;11.80;92.60;;;;;;5113556;28;20387;-50
2022/10/22 20:14:07;;;;;;;25.83;11.75;;;11.80;92.60;;;;;;5114140;28;20404;-48
2022/10/22 20:16:34;;;;;;;23.75;11.48;;;11.80;92.60;;;;;;5113633;28;20024;-49
2022/10/22 20:19:03;;;;;;;19.80;12.13;;;11.80;92.60;;;;;;5114636;28;20340;-49
2022/10/22 20:21:29;;;;;;;17.38;11.52;;;11.80;92.70;;;;;;5113710;28;20061;-49
2022/10/22 20:23:56;;;;;;;28.23;13.90;;;11.80;92.70;;;;;;5113692;28;20047;-49
2022/10/22 20:26:23;;;;;;;28.63;14.13;;;11.80;92.80;;;;;;5114262;28;20050;-48
2022/10/22 20:28:50;;;;;;;24.20;13.00;;;11.80;92.80;;;;;;5113584;28;20103;-51
2022/10/22 20:31:18;;;;;;;26.63;12.32;;;11.80;92.80;;;;;;5113592;28;20080;-49
2022/10/22 20:33:45;;;;;;;20.10;10.75;;;11.80;92.80;;;;;;5114341;28;20081;-50
2022/10/22 20:36:21;;;;;;;26.40;12.95;;;11.90;92.80;;;;;;5079084;28;20126;-50
2022/10/22 20:38:48;;;;;;;25.20;10.98;;;11.90;92.80;;;;;;5114469;28;20046;-48
2022/10/22 20:41:19;;;;;;;18.30;11.38;;;11.90;92.70;;;;;;5099156;28;20061;-45
2022/10/22 20:43:46;;;;;;;18.77;10.50;;;11.80;92.70;;;;;;5116862;28;20015;-41
2022/10/22 20:46:24;;;;;;;14.60;10.40;;;11.80;92.60;;;;;;5113710;28;20130;-40
2022/10/22 20:48:52;;;;;;;14.82;10.60;;;11.80;92.60;;;;;;5113795;28;20024;-38
2022/10/22 20:51:17;;;;;;;16.80;10.15;;;11.80;92.70;;;;;;5113655;28;20020;-38
2022/10/22 20:53:43;;;;;;;22.73;10.57;;;11.80;92.70;;;;;;5113756;28;20041;-39
2022/10/22 20:56:09;;;;;;;20.40;10.73;;;11.80;92.70;;;;;;5113594;28;20023;-39
2022/10/22 20:58:36;;;;;;;17.90;10.05;;;11.80;92.70;;;;;;5113675;28;20417;-39
2022/10/22 21:01:08;;;;;;;19.88;9.95;;;11.80;92.70;;;;;;5113603;28;20023;-42
2022/10/22 21:03:36;;;;;;;16.45;9.73;;;11.80;92.80;;;;;;5113213;28;20031;-41
2022/10/22 21:06:01;;;;;;;17.98;11.27;;;11.80;92.80;;;;;;5113409;28;20054;-40
2022/10/22 21:08:27;;;;;;;22.40;11.48;;;11.80;92.80;;;;;;5113133;28;20039;-41
2022/10/22 21:10:53;;;;;;;19.50;10.05;;;11.80;92.80;;;;;;5113174;28;20119;-40
2022/10/22 21:13:18;;;;;;;26.08;11.07;;;11.90;92.90;;;;;;5113479;28;20027;-40
2022/10/22 21:15:44;;;;;;;30.60;11.40;;;11.90;92.80;;;;;;5113162;28;20020;-41
2022/10/22 21:18:10;;;;;;;24.35;10.80;;;12.10;92.90;;;;;;5094905;28;20528;-40
2022/10/22 21:20:37;;;;;;;17.63;10.00;;;12.10;92.80;;;;;;5112984;28;20027;-40
2022/10/22 21:23:03;;;;;;;16.83;10.27;;;12.10;92.70;;;;;;5113045;28;20020;-40
2022/10/22 21:25:29;;;;;;;15.32;8.43;;;12.10;92.60;;;;;;5113051;28;20032;-40
2022/10/22 21:27:54;;;;;;;18.77;10.65;;;12.10;92.50;;;;;;5116702;28;20015;-39
2022/10/22 21:30:20;;;;;;;25.77;11.95;;;12.00;92.60;;;;;;5098619;28;20081;-39
2022/10/22 21:32:46;;;;;;;18.38;9.82;;;12.00;92.50;;;;;;5116811;28;20031;-40
2022/10/22 21:35:11;;;;;;;15.63;9.57;;;12.00;92.60;;;;;;5117274;28;20051;-40
2022/10/22 21:37:37;;;;;;;25.85;10.63;;;12.00;92.60;;;;;;5116977;28;20386;-39
2022/10/22 21:40:03;;;;;;;16.63;8.82;;;12.00;92.60;;;;;;5116394;28;20411;-39
2022/10/22 21:42:29;;;;;;;27.42;9.55;;;12.00;92.60;;;;;;5116786;28;20032;-39
2022/10/22 21:44:54;;;;;;;16.00;9.45;;;12.10;92.60;;;;;;5116853;28;20016;-39
2022/10/22 21:47:20;;;;;;;18.48;8.43;;;12.00;92.60;;;;;;5098210;28;20020;-38
2022/10/22 21:49:45;;;;;;;19.73;9.50;;;12.00;92.60;;;;;;5117142;28;20423;-38
2022/10/22 21:52:11;;;;;;;20.17;8.88;;;12.00;92.60;;;;;;5116730;28;20020;-39
2022/10/22 21:54:38;;;;;;;19.30;8.98;;;12.00;92.70;;;;;;5116373;28;20471;-43
2022/10/22 21:57:04;;;;;;;13.40;9.13;;;12.00;92.70;;;;;;5116713;28;20027;-40
2022/10/22 21:59:31;;;;;;;14.52;8.77;;;12.00;92.70;;;;;;5116277;28;20027;-38
2022/10/22 22:01:58;;;;;;;20.23;7.97;;;12.00;92.70;;;;;;5116478;28;20102;-39
2022/10/22 22:04:25;;;;;;;21.27;10.20;;;12.10;92.80;;;;;;5116182;28;20372;-39
2022/10/22 22:06:50;;;;;;;17.45;9.52;;;12.10;92.70;;;;;;5116489;28;20032;-39
2022/10/22 22:09:16;;;;;;;13.27;8.25;;;12.10;92.70;;;;;;5116189;28;20482;-39
2022/10/22 22:11:42;;;;;;;15.77;8.15;;;12.10;92.80;;;;;;5116343;28;20045;-39
2022/10/22 22:14:08;;;;;;;16.98;8.32;;;12.10;92.80;;;;;;5116568;28;20227;-40
2022/10/22 22:16:34;;;;;;;15.65;7.07;;;12.10;92.70;;;;;;5116067;28;20020;-39
2022/10/22 22:19:05;;;;;;;20.30;8.85;;;12.10;92.80;;;;;;5116602;28;20026;-40
2022/10/22 22:21:32;;;;;;;13.73;7.93;;;12.10;92.80;;;;;;5097722;28;20015;-40
2022/10/22 22:23:57;;;;;;;16.95;9.02;;;12.10;92.70;;;;;;5116501;28;20030;-39
2022/10/22 22:26:25;;;;;;;17.08;8.50;;;12.10;92.70;;;;;;5116086;28;20533;-40
2022/10/22 22:28:52;;;;;;;14.63;8.85;;;12.10;92.70;;;;;;5116248;28;20435;-39
2022/10/22 22:31:22;;;;;;;20.60;7.68;;;12.10;92.70;;;;;;5116520;28;20546;-39
2022/10/22 22:33:48;;;;;;;13.73;6.68;;;12.10;92.70;;;;;;5097859;28;20022;-39
2022/10/22 22:36:13;;;;;;;13.55;6.70;;;12.10;92.70;;;;;;5115963;28;20031;-39
2022/10/22 22:38:39;;;;;;;17.20;7.22;;;12.10;92.70;;;;;;5097122;28;20099;-39
2022/10/22 22:41:07;;;;;;;16.00;7.45;;;12.10;92.70;;;;;;5096979;28;20043;-38
2022/10/22 22:43:33;;;;;;;16.48;7.28;;;12.00;92.80;;;;;;5115507;28;20024;-40
2022/10/22 22:46:09;;;;;;;18.65;8.55;;;12.00;92.70;;;;;;5115863;28;20471;-40
2022/10/22 22:48:34;;;;;;;14.50;7.55;;;12.00;92.80;;;;;;5115903;28;20102;-38
2022/10/22 22:51:04;;;;;;;12.70;7.47;;;12.00;92.80;;;;;;5097249;28;20136;-38
2022/10/22 22:53:31;;;;;;;12.80;7.33;;;12.00;92.80;;;;;;5096987;28;20163;-40
2022/10/22 22:56:20;;;;;;;16.90;7.63;;;12.00;92.80;;;;;;5115615;28;20264;-38
2022/10/22 22:58:47;;;;;;;28.08;9.60;;;12.00;92.80;;;;;;5115211;28;20424;-39
2022/10/22 23:01:25;;;;;;;12.75;6.78;;;12.00;92.90;;;;;;5115021;28;20023;-39
2022/10/22 23:04:10;;;;;;;23.38;7.60;;;12.00;92.90;;;;;;5115132;28;20486;-39
2022/10/22 23:06:36;;;;;;;13.25;7.35;;;12.00;92.90;;;;;;5115251;28;20030;-38
2022/10/22 23:09:04;;;;;;;15.85;8.50;;;11.90;92.90;;;;;;5115648;28;20023;-39
2022/10/22 23:11:30;;;;;;;14.70;6.90;;;11.90;92.90;;;;;;5114896;28;20016;-39
2022/10/22 23:13:59;;;;;;;15.55;7.07;;;11.90;93.00;;;;;;5114893;28;20019;-38
2022/10/22 23:16:26;;;;;;;13.35;6.35;;;11.90;93.00;;;;;;5114786;28;20023;-40
2022/10/22 23:18:53;;;;;;;13.20;6.95;;;12.00;93.10;;;;;;5114850;28;20442;-39
2022/10/22 23:21:24;;;;;;;24.02;7.35;;;11.90;93.00;;;;;;5114955;28;20050;-39
2022/10/22 23:23:53;;;;;;;14.35;8.07;;;11.90;93.10;;;;;;5115143;28;20022;-39
2022/10/22 23:26:22;;;;;;;20.25;7.20;;;11.90;93.00;;;;;;5114607;28;20015;-38
2022/10/22 23:28:48;;;;;;;13.32;7.38;;;11.90;93.10;;;;;;5114875;28;20024;-38
2022/10/22 23:31:15;;;;;;;15.63;6.93;;;11.90;93.10;;;;;;5097075;28;20364;-38